createdAt,value
2022-12-11T00:01:45.513Z,99864.31
2022-12-11T00:04:12.974Z,99860.00
2022-12-11T00:06:42.336Z,99864.31
2022-12-11T00:09:10.529Z,99775.47
2022-12-11T00:11:38.012Z,99851.44
2022-12-11T00:14:05.511Z,99836.78
2022-12-11T00:16:32.972Z,99853.78
2022-12-11T00:19:00.452Z,99858.97
2022-12-11T00:21:27.897Z,99864.31
2022-12-11T00:23:56.640Z,99858.09
2022-12-11T00:26:24.081Z,99852.00
2022-12-11T00:28:53.308Z,99857.28
2022-12-11T00:31:20.959Z,99857.34
2022-12-11T00:33:49.529Z,99860.81
2022-12-11T00:36:18.067Z,99858.19
2022-12-11T00:38:45.513Z,99859.03
2022-12-11T00:41:14.276Z,99859.03
2022-12-11T00:43:41.733Z,99853.78
2022-12-11T00:46:09.190Z,99848.50
2022-12-11T00:48:36.948Z,99852.06
2022-12-11T00:51:04.495Z,99849.44
2022-12-11T00:53:31.993Z,99851.28
2022-12-11T00:55:59.457Z,99849.50
2022-12-11T00:58:28.773Z,99852.91
2022-12-11T01:00:56.238Z,99852.91
2022-12-11T01:03:23.720Z,99860.00
2022-12-11T01:05:54.154Z,99861.69
2022-12-11T01:08:21.674Z,99855.53
2022-12-11T01:10:49.304Z,99852.91
2022-12-11T01:13:16.841Z,99855.53
2022-12-11T01:15:46.108Z,99859.13
2022-12-11T01:18:14.859Z,99855.63
2022-12-11T01:20:43.327Z,99781.38
2022-12-11T01:23:11.536Z,99867.03
2022-12-11T01:25:39.057Z,99867.97
2022-12-11T01:28:06.664Z,99863.47
2022-12-11T01:30:34.258Z,99799.44
2022-12-11T01:33:03.092Z,99868.81
2022-12-11T01:35:30.563Z,99866.16
2022-12-11T01:37:59.190Z,99868.81
2022-12-11T01:40:26.705Z,99867.91
2022-12-11T01:42:54.154Z,99865.25
2022-12-11T01:45:30.529Z,99866.09
2022-12-11T01:48:03.149Z,99867.03
2022-12-11T01:50:31.124Z,99872.31
2022-12-11T01:52:58.600Z,99865.25
2022-12-11T01:55:26.122Z,99834.66
2022-12-11T01:57:53.588Z,99814.97
2022-12-11T02:00:21.199Z,99804.56
2022-12-11T02:02:48.694Z,99861.84
2022-12-11T02:05:17.532Z,99859.13
2022-12-11T02:07:46.851Z,99857.44
2022-12-11T02:10:14.360Z,99854.72
2022-12-11T02:12:46.682Z,99817.09
2022-12-11T02:15:24.803Z,99852.16
2022-12-11T02:18:06.568Z,99812.63
2022-12-11T02:20:50.217Z,99841.59
2022-12-11T02:23:56.444Z,99794.91
2022-12-11T02:26:38.337Z,99849.50
2022-12-11T02:29:23.183Z,99848.56
2022-12-11T02:31:52.733Z,99853.84
2022-12-11T02:34:21.554Z,99794.09
2022-12-11T02:36:51.875Z,99860.00
2022-12-11T02:39:19.384Z,99855.63
2022-12-11T02:41:49.099Z,99858.25
2022-12-11T02:44:20.024Z,99805.00
2022-12-11T02:46:47.508Z,99850.34
2022-12-11T02:49:15.028Z,99846.00
2022-12-11T02:51:43.268Z,99804.13
2022-12-11T02:54:12.793Z,99788.81
2022-12-11T02:56:42.414Z,99848.66
2022-12-11T02:59:11.549Z,99789.84
2022-12-11T03:01:40.411Z,99846.88
2022-12-11T03:04:07.909Z,99846.78
2022-12-11T03:06:38.407Z,99770.53
2022-12-11T03:09:06.024Z,99788.75
2022-12-11T03:11:33.502Z,99839.78
2022-12-11T03:14:02.677Z,99843.28
2022-12-11T03:16:32.069Z,99837.16
2022-12-11T03:19:06.035Z,99798.63
2022-12-11T03:21:35.847Z,99811.31
2022-12-11T03:24:04.487Z,99828.34
2022-12-11T03:26:32.886Z,99831.88
2022-12-11T03:29:01.119Z,99797.72
2022-12-11T03:31:30.647Z,99830.97
2022-12-11T03:34:00.843Z,99817.44
2022-12-11T03:36:29.764Z,99835.44
2022-12-11T03:38:58.825Z,99789.91
2022-12-11T03:41:27.135Z,99782.50
2022-12-11T03:43:55.828Z,99829.25
2022-12-11T03:46:32.366Z,99831.88
2022-12-11T03:49:25.910Z,99831.88
2022-12-11T03:52:09.066Z,99830.09
2022-12-11T03:54:40.743Z,99757.78
2022-12-11T03:57:48.015Z,99834.44
2022-12-11T04:00:20.744Z,99796.44
2022-12-11T04:03:11.389Z,99841.53
2022-12-11T04:06:06.357Z,99786.19
2022-12-11T04:08:45.673Z,99845.94
2022-12-11T04:11:40.637Z,99843.28
2022-12-11T04:14:27.746Z,99840.72
2022-12-11T04:17:07.226Z,99833.84
2022-12-11T04:19:53.905Z,99831.03
2022-12-11T04:22:43.159Z,99841.53
2022-12-11T04:25:18.797Z,99843.28
2022-12-11T04:27:53.461Z,99838.03
2022-12-11T04:30:33.913Z,99763.00
2022-12-11T04:36:04.491Z,99835.44
2022-12-11T04:38:35.099Z,99831.94
2022-12-11T04:41:06.447Z,99835.44
2022-12-11T04:43:39.947Z,99837.22
2022-12-11T04:46:16.134Z,99832.91
2022-12-11T04:48:45.103Z,99826.91
2022-12-11T04:51:13.995Z,99761.78
2022-12-11T04:53:44.423Z,99823.13
2022-12-11T04:56:14.561Z,99831.88
2022-12-11T04:58:43.025Z,99823.22
2022-12-11T05:01:18.282Z,99758.28
2022-12-11T05:03:56.065Z,99621.84
2022-12-11T05:06:24.781Z,99823.13
2022-12-11T05:08:59.251Z,99825.06
2022-12-11T05:11:37.999Z,99821.41
2022-12-11T05:14:09.144Z,99819.69
2022-12-11T05:16:40.776Z,99817.94
2022-12-11T05:19:15.089Z,99822.34
2022-12-11T05:21:44.088Z,99821.41
2022-12-11T05:24:21.583Z,99824.91
2022-12-11T05:27:01.328Z,99820.50
2022-12-11T05:29:30.425Z,99814.34
2022-12-11T05:32:02.196Z,99821.31
2022-12-11T05:34:31.587Z,99821.31
2022-12-11T05:37:05.810Z,99819.56
2022-12-11T05:39:45.060Z,99754.09
2022-12-11T05:42:33.076Z,99818.69
2022-12-11T05:45:01.850Z,99819.63
2022-12-11T05:47:30.843Z,99815.28
2022-12-11T05:49:59.552Z,99811.72
2022-12-11T05:52:29.780Z,99809.06
2022-12-11T05:55:05.299Z,99812.66
2022-12-11T05:57:39.105Z,99809.94
2022-12-11T06:00:18.734Z,99809.06
2022-12-11T06:02:47.851Z,99814.34
2022-12-11T06:05:15.435Z,99807.53
2022-12-11T06:07:42.857Z,99817.94
2022-12-11T06:10:11.914Z,99816.06
2022-12-11T06:12:39.354Z,99806.44
2022-12-11T06:15:07.912Z,99809.94
2022-12-11T06:17:35.509Z,99813.50
2022-12-11T06:20:03.539Z,99804.91
2022-12-11T06:22:31.512Z,99808.13
2022-12-11T06:24:58.968Z,99807.31
2022-12-11T06:27:27.726Z,99810.78
2022-12-11T06:29:55.813Z,99812.56
2022-12-11T06:32:23.278Z,99801.16
2022-12-11T06:34:50.737Z,99795.19
2022-12-11T06:37:18.233Z,99801.16
2022-12-11T06:39:45.668Z,99800.22
2022-12-11T06:42:13.352Z,99640.03
2022-12-11T06:44:42.162Z,99795.81
2022-12-11T06:47:09.646Z,99794.94
2022-12-11T06:49:37.121Z,99797.59
2022-12-11T06:52:05.120Z,99794.03
2022-12-11T06:54:32.822Z,99791.47
2022-12-11T06:57:00.267Z,99781.09
2022-12-11T06:59:27.729Z,99774.22
2022-12-11T07:01:56.554Z,99784.41
2022-12-11T07:04:24.797Z,99742.72
2022-12-11T07:06:53.206Z,99800.16
2022-12-11T07:09:20.759Z,99796.69
2022-12-11T07:11:50.466Z,99802.88
2022-12-11T07:14:17.934Z,99807.31
2022-12-11T07:16:45.446Z,99807.31
2022-12-11T07:19:14.228Z,99610.19
2022-12-11T07:21:41.698Z,99812.50
2022-12-11T07:24:09.295Z,99815.97
2022-12-11T07:26:36.731Z,99819.69
2022-12-11T07:29:04.206Z,99828.34
2022-12-11T07:31:31.723Z,99779.56
2022-12-11T07:34:00.188Z,99825.63
2022-12-11T07:36:29.107Z,99763.19
2022-12-11T07:38:56.626Z,99761.72
2022-12-11T07:41:24.228Z,99821.31
2022-12-11T07:43:51.691Z,99823.13
2022-12-11T07:46:20.170Z,99788.16
2022-12-11T07:48:47.964Z,99776.22
2022-12-11T07:51:16.752Z,99823.06
2022-12-11T07:53:45.784Z,99765.97
2022-12-11T07:56:13.485Z,99781.41
2022-12-11T07:58:40.969Z,99826.59
2022-12-11T08:01:11.718Z,99823.97
2022-12-11T08:03:39.207Z,99821.31
2022-12-11T08:06:07.341Z,99821.31
2022-12-11T08:08:34.800Z,99784.63
2022-12-11T08:11:03.574Z,99831.03
2022-12-11T08:13:31.088Z,99779.00
2022-12-11T08:15:58.695Z,99731.25
2022-12-11T08:18:26.120Z,99819.22
2022-12-11T08:20:53.592Z,99833.59
2022-12-11T08:23:21.018Z,99838.03
2022-12-11T08:25:48.561Z,99834.44
2022-12-11T08:28:17.317Z,99827.47
2022-12-11T08:30:44.839Z,99824.91
2022-12-11T08:33:12.322Z,99832.81
2022-12-11T08:35:40.215Z,99822.25
2022-12-11T08:38:07.669Z,99822.25
2022-12-11T08:40:35.135Z,99818.69
2022-12-11T08:43:02.559Z,99822.19
2022-12-11T08:45:31.412Z,99820.50
2022-12-11T08:47:59.220Z,99811.88
2022-12-11T08:50:26.760Z,99825.69
2022-12-11T08:52:54.376Z,99821.31
2022-12-11T08:55:22.059Z,99823.06
2022-12-11T08:57:49.476Z,99824.84
2022-12-11T09:00:18.436Z,99825.69
2022-12-11T09:02:47.215Z,99829.16
2022-12-11T09:05:14.757Z,99785.44
2022-12-11T09:07:42.184Z,99829.25
2022-12-11T09:10:10.375Z,99833.59
2022-12-11T09:12:37.892Z,99830.97
2022-12-11T09:15:06.121Z,99830.97
2022-12-11T09:17:35.055Z,99828.34
2022-12-11T09:20:05.727Z,99807.13
2022-12-11T09:22:33.232Z,99838.81
2022-12-11T09:25:00.704Z,99835.31
2022-12-11T09:27:29.167Z,99713.56
2022-12-11T09:29:56.649Z,99834.44
2022-12-11T09:32:24.078Z,99806.97
2022-12-11T09:34:51.678Z,99816.91
2022-12-11T09:37:20.427Z,99819.47
2022-12-11T09:39:48.085Z,99814.19
2022-12-11T09:42:16.692Z,99810.63
2022-12-11T09:44:45.269Z,99813.34
2022-12-11T09:47:21.127Z,99808.94
2022-12-11T09:49:49.500Z,99808.94
2022-12-11T09:52:20.402Z,99800.06
2022-12-11T09:54:50.352Z,99802.78
2022-12-11T09:57:28.486Z,99788.44
2022-12-11T10:00:05.975Z,99797.50
2022-12-11T10:02:37.555Z,99801.88
2022-12-11T10:05:09.273Z,99799.25
2022-12-11T10:07:41.743Z,99798.38
2022-12-11T10:10:14.547Z,99798.38
2022-12-11T10:12:45.675Z,99803.56
2022-12-11T10:15:17.916Z,99783.00
2022-12-11T10:17:45.483Z,99796.53
2022-12-11T10:20:20.558Z,99788.84
2022-12-11T10:22:49.631Z,99683.69
2022-12-11T10:25:20.790Z,99789.53
2022-12-11T10:27:48.297Z,99788.69
2022-12-11T10:30:17.213Z,99785.19
2022-12-11T10:32:58.917Z,99776.34
2022-12-11T10:35:32.816Z,99783.34
2022-12-11T10:38:06.109Z,99778.88
2022-12-11T10:40:33.540Z,99689.50
2022-12-11T10:43:00.968Z,99777.13
2022-12-11T10:45:28.429Z,99779.75
2022-12-11T10:48:03.701Z,99786.72
2022-12-11T10:50:31.204Z,99782.41
2022-12-11T10:52:58.641Z,99782.41
2022-12-11T10:55:28.830Z,99678.94
2022-12-11T10:57:56.675Z,99783.41
2022-12-11T11:00:32.957Z,99777.19
2022-12-11T11:03:00.638Z,99772.88
2022-12-11T11:05:29.947Z,99734.38
2022-12-11T11:08:04.689Z,99707.09
2022-12-11T11:10:33.485Z,99717.34
2022-12-11T11:13:01.793Z,99762.69
2022-12-11T11:15:29.907Z,99724.88
2022-12-11T11:17:58.386Z,99777.13
2022-12-11T11:20:26.946Z,99762.78
2022-12-11T11:22:55.630Z,99702.78
2022-12-11T11:25:23.850Z,99739.88
2022-12-11T11:27:53.633Z,99764.16
2022-12-11T11:30:22.794Z,99772.78
2022-12-11T11:32:51.593Z,99725.19
2022-12-11T11:35:20.905Z,99706.88
2022-12-11T11:37:55.702Z,99776.19
2022-12-11T11:40:25.152Z,99763.22
2022-12-11T11:42:59.521Z,99769.19
2022-12-11T11:45:28.289Z,99772.78
2022-12-11T11:48:06.275Z,99753.59
2022-12-11T11:50:36.989Z,99764.00
2022-12-11T11:53:06.608Z,99742.81
2022-12-11T11:55:42.035Z,99762.22
2022-12-11T11:58:16.344Z,99756.88
2022-12-11T12:00:43.852Z,99764.88
2022-12-11T12:03:12.333Z,99717.19
2022-12-11T12:05:42.508Z,99726.47
2022-12-11T12:08:10.886Z,99758.81
2022-12-11T12:10:42.001Z,99762.31
2022-12-11T12:13:47.507Z,99753.44
2022-12-11T12:16:05.011Z,99754.41
2022-12-11T12:18:41.221Z,99692.00
2022-12-11T12:21:12.163Z,99722.50
2022-12-11T12:23:49.696Z,99743.75
2022-12-11T12:26:21.567Z,99739.41
2022-12-11T12:28:53.765Z,99734.91
2022-12-11T12:31:30.614Z,99733.22
2022-12-11T12:34:02.266Z,99658.19
2022-12-11T12:36:34.087Z,99734.13
2022-12-11T12:39:02.429Z,99691.00
2022-12-11T12:41:36.414Z,99680.91
2022-12-11T12:44:14.637Z,99700.25
2022-12-11T12:46:49.007Z,99735.06
2022-12-11T12:49:17.517Z,99732.44
2022-12-11T12:51:45.169Z,99729.78
2022-12-11T12:54:13.525Z,99715.22
2022-12-11T12:56:43.542Z,99727.06
2022-12-11T12:59:21.901Z,99734.03
2022-12-11T13:01:52.163Z,99728.84
2022-12-11T13:04:54.596Z,99730.66
2022-12-11T13:07:23.111Z,99735.06
2022-12-11T13:10:01.287Z,99634.38
2022-12-11T13:12:33.869Z,99735.06
2022-12-11T13:15:02.898Z,99731.50
2022-12-11T13:17:37.372Z,99683.06
2022-12-11T13:20:15.290Z,99685.72
2022-12-11T13:22:50.636Z,99690.38
2022-12-11T13:25:22.235Z,99729.78
2022-12-11T13:27:50.126Z,99728.03
2022-12-11T13:30:24.604Z,99728.03
2022-12-11T13:32:59.397Z,99738.56
2022-12-11T13:35:26.856Z,99733.38
2022-12-11T13:37:55.240Z,99732.44
2022-12-11T13:40:24.823Z,99729.78
2022-12-11T13:42:53.685Z,99643.69
2022-12-11T13:45:24.875Z,99686.28
2022-12-11T13:47:52.341Z,99732.34
2022-12-11T13:50:21.674Z,99728.09
2022-12-11T13:52:54.474Z,99718.53
2022-12-11T13:55:24.228Z,99732.28
2022-12-11T13:57:51.881Z,99728.78
2022-12-11T14:00:23.674Z,99729.63
2022-12-11T14:02:51.116Z,99637.63
2022-12-11T14:05:18.549Z,99734.91
2022-12-11T14:07:48.381Z,99729.88
2022-12-11T14:10:17.582Z,99662.59
2022-12-11T14:12:45.886Z,99741.13
2022-12-11T14:15:14.970Z,99671.06
2022-12-11T14:17:50.010Z,99734.91
2022-12-11T14:20:20.119Z,99740.19
2022-12-11T14:22:47.568Z,99741.06
2022-12-11T14:25:21.654Z,99742.75
2022-12-11T14:27:49.564Z,99743.69
2022-12-11T14:30:22.398Z,99751.59
2022-12-11T14:32:51.156Z,99698.66
2022-12-11T14:35:24.302Z,99746.34
2022-12-11T14:37:51.845Z,99749.03
2022-12-11T14:40:20.039Z,99662.69
2022-12-11T14:42:48.808Z,99665.63
2022-12-11T14:45:19.825Z,99743.13
2022-12-11T14:47:47.280Z,99763.00
2022-12-11T14:50:18.790Z,99755.06
2022-12-11T14:52:48.102Z,99757.72
2022-12-11T14:55:16.602Z,99757.72
2022-12-11T14:57:44.937Z,99761.22
2022-12-11T15:02:32.500Z,99674.63
2022-12-11T15:05:06.828Z,99768.34
2022-12-11T15:07:35.642Z,99769.19
2022-12-11T15:10:03.878Z,99761.53
2022-12-11T15:12:31.461Z,99771.84
2022-12-11T15:15:00.643Z,99771.78
2022-12-11T15:17:28.163Z,99769.13
2022-12-11T15:19:56.771Z,99700.22
2022-12-11T15:22:32.198Z,99776.09
2022-12-11T15:25:00.995Z,99770.81
2022-12-11T15:27:31.836Z,99763.06
2022-12-11T15:29:59.286Z,99771.69
2022-12-11T15:32:26.792Z,99770.91
2022-12-11T15:34:54.745Z,99773.47
2022-12-11T15:37:23.499Z,99777.03
2022-12-11T15:39:50.965Z,99679.03
2022-12-11T15:42:24.409Z,99782.25
2022-12-11T15:44:51.875Z,99778.75
2022-12-11T15:47:20.907Z,99783.19
2022-12-11T15:49:48.342Z,99785.81
2022-12-11T15:52:15.801Z,99778.81
2022-12-11T15:54:43.261Z,99780.53
2022-12-11T15:57:12.953Z,99780.53
2022-12-11T15:59:41.709Z,99787.59
2022-12-11T16:02:11.865Z,99791.94
2022-12-11T16:04:39.166Z,99787.66
2022-12-11T16:07:06.750Z,99782.41
2022-12-11T16:09:34.521Z,99788.47
2022-12-11T16:12:02.258Z,99784.97
2022-12-11T16:14:29.704Z,99785.81
2022-12-11T16:16:58.474Z,99784.00
2022-12-11T16:19:25.912Z,99779.59
2022-12-11T16:21:53.379Z,99780.53
2022-12-11T16:24:20.805Z,99772.06
2022-12-11T16:26:48.252Z,99781.38
2022-12-11T16:29:15.718Z,99777.84
2022-12-11T16:31:43.676Z,99782.19
2022-12-11T16:34:12.448Z,99778.69
2022-12-11T16:36:39.891Z,99782.25
2022-12-11T16:39:08.481Z,99775.19
2022-12-11T16:41:36.433Z,99774.31
2022-12-11T16:44:03.872Z,99777.84
2022-12-11T16:46:31.374Z,99777.84
2022-12-11T16:48:58.864Z,99775.19
2022-12-11T16:51:27.638Z,99776.06
2022-12-11T16:53:55.216Z,99779.59
2022-12-11T16:56:22.672Z,99778.88
2022-12-11T16:58:50.153Z,99771.84
2022-12-11T17:01:17.638Z,99780.47
2022-12-11T17:03:45.233Z,99783.09
2022-12-11T17:06:13.323Z,99779.59
2022-12-11T17:08:42.579Z,99780.53
2022-12-11T17:11:10.735Z,99702.06
2022-12-11T17:13:38.192Z,99784.88
2022-12-11T17:16:06.399Z,99786.66
2022-12-11T17:18:33.996Z,99783.09
2022-12-11T17:21:02.783Z,99785.69
2022-12-11T17:23:30.303Z,99783.97
2022-12-11T17:25:59.095Z,99782.19
2022-12-11T17:28:26.590Z,99782.25
2022-12-11T17:30:54.083Z,99774.31
2022-12-11T17:33:21.536Z,99775.28
2022-12-11T17:35:49.007Z,99776.09
2022-12-11T17:38:16.456Z,99777.91
2022-12-11T17:40:43.956Z,99776.09
2022-12-11T17:43:12.932Z,99724.50
2022-12-11T17:45:43.228Z,99686.63
2022-12-11T17:48:10.745Z,99786.72
2022-12-11T17:50:40.876Z,99782.41
2022-12-11T17:53:08.193Z,99782.56
2022-12-11T17:55:36.238Z,99782.56
2022-12-11T17:58:03.802Z,99788.63
2022-12-11T18:00:33.512Z,99786.81
2022-12-11T18:03:01.090Z,99790.38
2022-12-11T18:05:28.549Z,99785.19
2022-12-11T18:07:57.869Z,99789.53
2022-12-11T18:10:25.686Z,99785.97
2022-12-11T18:12:53.117Z,99789.53
2022-12-11T18:15:20.785Z,99783.41
2022-12-11T18:17:49.549Z,99790.38
2022-12-11T18:20:17.072Z,99780.78
2022-12-11T18:22:44.509Z,99778.13
2022-12-11T18:25:12.512Z,99789.53
2022-12-11T18:27:40.388Z,99781.59
2022-12-11T18:30:09.002Z,99785.97
2022-12-11T18:32:36.440Z,99785.97
2022-12-11T18:35:05.905Z,99783.34
2022-12-11T18:37:33.333Z,99785.03
2022-12-11T18:40:00.781Z,99785.03
2022-12-11T18:42:33.145Z,99783.34
2022-12-11T18:45:00.748Z,99781.53
2022-12-11T18:47:28.236Z,99785.09
2022-12-11T18:49:55.708Z,99778.97
2022-12-11T18:52:24.555Z,99787.66
2022-12-11T18:54:52.258Z,99792.94
2022-12-11T18:57:19.716Z,99784.16
2022-12-11T18:59:47.315Z,99792.09
2022-12-11T19:02:14.947Z,99785.09
2022-12-11T19:04:42.602Z,99786.88
2022-12-11T19:07:10.060Z,99677.94
2022-12-11T19:09:40.575Z,99789.53
2022-12-11T19:12:09.901Z,99784.41
2022-12-11T19:14:37.385Z,99790.38
2022-12-11T19:17:04.803Z,99793.03
2022-12-11T19:19:32.266Z,99787.13
2022-12-11T19:21:59.969Z,99790.47
2022-12-11T19:24:27.432Z,99789.53
2022-12-11T19:26:56.205Z,99787.81
2022-12-11T19:29:24.510Z,99699.28
2022-12-11T19:31:52.020Z,99792.31
2022-12-11T19:34:19.604Z,99708.00
2022-12-11T19:36:47.058Z,99799.31
2022-12-11T19:39:15.211Z,99801.94
2022-12-11T19:41:42.734Z,99781.47
2022-12-11T19:44:11.719Z,99800.38
2022-12-11T19:46:39.339Z,99802.88
2022-12-11T19:49:06.821Z,99803.81
2022-12-11T19:51:36.876Z,99734.84
2022-12-11T19:54:04.545Z,99794.34
2022-12-11T19:56:32.282Z,99714.06
2022-12-11T19:59:00.699Z,99791.84
2022-12-11T20:01:30.984Z,99798.53
2022-12-11T20:04:00.026Z,99793.31
2022-12-11T20:06:27.968Z,99797.66
2022-12-11T20:08:55.484Z,99791.56
2022-12-11T20:11:23.050Z,99730.38
2022-12-11T20:13:50.598Z,99795.97
2022-12-11T20:16:33.328Z,99797.75
2022-12-11T20:19:08.219Z,99803.88
2022-12-11T20:21:35.665Z,99803.94
2022-12-11T20:24:03.114Z,99810.94
2022-12-11T20:26:32.411Z,99815.28
2022-12-11T20:28:59.963Z,99817.06
2022-12-11T20:31:27.897Z,99809.22
2022-12-11T20:33:56.496Z,99807.38
2022-12-11T20:36:25.960Z,99768.53
2022-12-11T20:38:53.674Z,99775.78
2022-12-11T20:41:22.180Z,99752.72
2022-12-11T20:43:49.926Z,99809.94
2022-12-11T20:46:18.302Z,99734.78
2022-12-11T20:48:45.982Z,99808.22
2022-12-11T20:51:14.053Z,99708.38
2022-12-11T20:53:42.883Z,99810.94
2022-12-11T20:56:12.897Z,99795.09
2022-12-11T20:58:40.485Z,99738.66
2022-12-11T21:01:08.005Z,99818.09
2022-12-11T21:03:41.762Z,99823.34
2022-12-11T21:06:09.562Z,99817.22
2022-12-11T21:08:36.986Z,99825.06
2022-12-11T21:11:07.993Z,99821.56
2022-12-11T21:13:36.720Z,99820.72
2022-12-11T21:16:06.083Z,99818.09
2022-12-11T21:18:33.601Z,99822.50
2022-12-11T21:21:01.038Z,99808.66
2022-12-11T21:23:28.502Z,99817.38
2022-12-11T21:25:56.039Z,99823.50
2022-12-11T21:28:24.803Z,99817.38
2022-12-11T21:30:52.311Z,99813.88
2022-12-11T21:33:19.751Z,99741.38
2022-12-11T21:35:54.876Z,99744.84
2022-12-11T21:38:22.337Z,99823.59
2022-12-11T21:40:49.797Z,99828.84
2022-12-11T21:43:17.261Z,99812.38
2022-12-11T21:46:02.266Z,99822.72
2022-12-11T21:48:29.997Z,99818.38
2022-12-11T21:51:05.838Z,99779.78
2022-12-11T21:53:33.435Z,99812.25
2022-12-11T21:56:00.888Z,99815.75
2022-12-11T21:58:28.343Z,99812.16
2022-12-11T22:00:57.156Z,99797.59
2022-12-11T22:03:24.736Z,99800.97
2022-12-11T22:05:52.191Z,99805.19
2022-12-11T22:08:19.696Z,99807.84
2022-12-11T22:10:47.233Z,99746.56
2022-12-11T22:13:14.689Z,99756.72
2022-12-11T22:15:42.268Z,99812.31
2022-12-11T22:18:11.037Z,99815.75
2022-12-11T22:20:38.480Z,99824.56
2022-12-11T22:23:05.927Z,99821.94
2022-12-11T22:25:33.401Z,99821.94
2022-12-11T22:28:00.860Z,99797.38
2022-12-11T22:30:28.383Z,99807.13
2022-12-11T22:32:55.860Z,99817.81
2022-12-11T22:35:27.280Z,99821.09
2022-12-11T22:37:55.121Z,99829.00
2022-12-11T22:40:22.612Z,99822.88
2022-12-11T22:42:50.068Z,99824.63
2022-12-11T22:45:17.598Z,99825.56
2022-12-11T22:47:45.055Z,99825.66
2022-12-11T22:50:12.887Z,99750.47
2022-12-11T22:52:41.683Z,99829.16
2022-12-11T22:55:09.721Z,99826.44
2022-12-11T22:57:37.272Z,99817.88
2022-12-11T23:00:05.678Z,99821.25
2022-12-11T23:02:33.149Z,99816.19
2022-12-11T23:05:00.640Z,99819.50
2022-12-11T23:07:28.173Z,99820.38
2022-12-11T23:09:57.034Z,99824.84
2022-12-11T23:12:24.499Z,99823.94
2022-12-11T23:14:51.996Z,99827.50
2022-12-11T23:17:19.435Z,99825.72
2022-12-11T23:19:46.879Z,99824.03
2022-12-11T23:22:14.507Z,99825.78
2022-12-11T23:24:41.962Z,99825.78
2022-12-11T23:27:10.737Z,99824.09
2022-12-11T23:29:38.214Z,99824.09
2022-12-11T23:32:06.273Z,99826.75
2022-12-11T23:34:33.703Z,99825.00
2022-12-11T23:37:01.886Z,99762.44
2022-12-11T23:39:29.311Z,99823.31
2022-12-11T23:41:56.793Z,99768.69
2022-12-11T23:44:25.583Z,99818.97
2022-12-11T23:46:53.026Z,99824.25
2022-12-11T23:49:20.463Z,99828.66
2022-12-11T23:51:47.955Z,99832.22
2022-12-11T23:54:15.395Z,99825.16
2022-12-11T23:56:42.846Z,99825.16
2022-12-11T23:59:12.840Z,99827.78
